Halleck, NV (89824)

5:21 AM PDT on September 05, 2015 (GMT -0700)
Ryndon(KNVELKO6) | | Change Station
CLOSE
Current Station
Personal Weather Station
Location: Elko, NV
Elevation: 5230 ft
Nearby Weather Stations
Active Advisory: Freeze Watch Active Notice: Public Information Statement

Elev 5230 ft 40.96 °N, 115.59 °W | Updated 2 seconds ago

Overcast
Overcast
41.6 °F
Feels Like 42 °F
N
0.0
Wind Variable Wind from ESE
Gusts 0.0 mph

Today
High -- | Low -- °F
--% Chance of Precip.
Yesterday
High -- | Low -- °F
Precip. -- in
6:12 AM 7:07 PM
Waning Gibbous, 49% visible
Pressure 29.83 in
Visibility 10.0 miles
Clouds Overcast 11000 ft
Windchill 42 °F
Dew Point 24 °F
Humidity 50%
Rainfall 0.00 in
Snow Depth Not available.
UV 0 out of 12
Pollen 9.10 out of 12
Air Quality Not available.
Flu Activity Not available.
METAR KEKO 051156Z AUTO 20006KT 10SM OVC110 09/M01 A2996 RMK AO2 SLP102 T00891006 10139 20072 53010
Pressure 29.83 in
Visibility 10.0 miles
Clouds Overcast 11000 ft
Windchill 42 °F
Dew Point 24 °F
Humidity 50%
Rainfall 0.00 in
Snow Depth Not available.
UV 0 out of 12
Pollen 9.10 out of 12
Air Quality Not available.
Flu Activity Not available.
METAR KEKO 051156Z AUTO 20006KT 10SM OVC110 09/M01 A2996 RMK AO2 SLP102 T00891006 10139 20072 53010

10-Day Weather Forecast

×

Almanac

Astronomy

Sep. 05, 2015 Rise Set
Actual Time
Civil Twilight
Nautical Twilight
Astronomical Twilight
Moon
Length of Visible Light
Length of Day
Tomorrow will be .
, % of the Moon is Illuminated

Today's Extremes

State Highs State Lows

Community

WunderPhotos

Upload Photos

1,852,455 photos uploaded!

WunderBlogs® & News

Nearby

Air Quality

  Air Quality AQ Index Pollutant
Not available.

Snow Depth

Station Depth Elevation

Earthquake Activity

City Distance Mag. Time & Date
Minimum magnitude displayed is 2.5.

Coastal Water Temperatures

Place Temperature

Stations

Nearby Weather Stations

Station Location Temp. Windchill Dew Point Humidity Wind Precip. Elev Updated Type
                   
Freeze Watch
Statement as of 2:03 AM PDT on September 05, 2015

... Freeze watch remains in effect from late tonight through
Sunday morning...

* temperatures... upper 20s to low 30s.

* Timing... temperatures will cool into the 30s after midnight
with the lowest temperatures being reached between 4am and
6am.

* Locations include: Jackpot... Wildhorse... Owyhee... Austin...
Austin Summit... Eureka... Diamond Valley... Pinto Summit...
Battle Mountain... Emigrant Pass... Wells... Pequop Summit...
Elko... Spring Creek... Carlin

* duration... below freezing temperatures will last only a few
hours early Sunday morning.

* Impacts... gardens and other outdoor plants that are temperature
sensitive may suffer damage.

Precautionary/preparedness actions...

A freeze watch means sub-freezing temperatures are possible.
These conditions could kill crops and other sensitive vegetation.



94